world map with LIVM marked

LIVM - Location

This information may not be accurate or current and is not valid for navigation or flight planning. No warranty of fitness for any purpose is made or implied.

flag of Italy

Donate via PayPal

Additional information is available on the NEW Great Circle Mapper

Location
City:  Point Marina/Ravenna, Italy
Near (Alt.):Marino di Ravenna
ICAO:LIVM

Details
Latitude:44°27'N (44.450)
Longitude:12°18'E (12.300)
Elevation:20 ft (6 m)

Time
Timezone:UTC+1 (DST+4)
Local Time:

Weather
METAR:LIVM  041355Z 01007KT CAVOK 09/05 Q1024 RMK SKC QUK 2 QUL 1 E VIS MAR 18 KM VIS MIN 9999

Related Locations
Nearby:
Farthest:CHT: 12003 mi / 19317 km
Waitangi [Tuuta], CIT, NZ

Find:

   beyond  
but within

Other Information
Maps:
Sources:

  


 


Great Circle Mapper   Great Circle Mapper
Great Circle Mapper FAQ   Great Circle Mapper FAQ
  Karl's Home Page
KLSē   KLSē Home
   GC on Facebook
Airlines of the World   Airlines of the World
Donate via PayPal


Copyright © 2004-2019, Karl L. Swartz. All rights reserved.
All trademarks mentioned herein belong to their respective owners.

Please see credits for attribution and copyright information.

Karl Swartz <karl@kls2.com>
  Powered by FreeBSD
Valid HTML 4.01!
Labeled with ICRA
hCard Microformat
Geo Microformat